createdAt,value
2018-03-06T00:00:56.059Z,40.77
2018-03-06T00:03:23.664Z,38.67
2018-03-06T00:05:51.237Z,40.80
2018-03-06T00:08:18.810Z,43.23
2018-03-06T00:10:46.398Z,41.43
2018-03-06T00:13:13.965Z,39.53
2018-03-06T00:15:41.535Z,41.27
2018-03-06T00:18:09.157Z,40.03
2018-03-06T00:20:36.735Z,42.00
2018-03-06T00:23:04.303Z,41.10
2018-03-06T00:25:31.898Z,40.13
2018-03-06T00:28:00.237Z,42.73
2018-03-06T00:30:27.810Z,39.90
2018-03-06T00:32:55.415Z,41.00
2018-03-06T00:35:22.990Z,40.50
2018-03-06T00:37:50.563Z,40.03
2018-03-06T00:40:18.168Z,39.40
2018-03-06T00:42:45.738Z,35.40
2018-03-06T00:45:14.074Z,33.97
2018-03-06T00:47:41.676Z,34.70
2018-03-06T00:50:10.013Z,34.67
2018-03-06T00:52:37.584Z,31.57
2018-03-06T00:55:05.183Z,31.90
2018-03-06T00:57:33.524Z,31.37
2018-03-06T01:00:01.088Z,32.53
2018-03-06T01:02:28.694Z,30.70
2018-03-06T01:04:56.286Z,31.40
2018-03-06T01:07:23.863Z,30.23
2018-03-06T01:09:51.454Z,31.80
2018-03-06T01:12:19.795Z,32.17
2018-03-06T01:14:47.362Z,30.23
2018-03-06T01:17:14.962Z,31.70
2018-03-06T01:19:43.297Z,33.00
2018-03-06T01:22:11.633Z,31.97
2018-03-06T01:24:40.014Z,32.47
2018-03-06T01:27:07.607Z,33.90
2018-03-06T01:29:35.166Z,36.53
2018-03-06T01:32:02.778Z,33.73
2018-03-06T01:34:31.107Z,40.03
2018-03-06T01:36:58.674Z,39.87
2018-03-06T01:39:26.270Z,40.13
2018-03-06T01:41:54.622Z,41.20
2018-03-06T01:44:22.199Z,40.10
2018-03-06T01:46:49.796Z,41.93
2018-03-06T01:49:17.374Z,42.17
2018-03-06T01:51:57.814Z,43.03
2018-03-06T01:54:25.383Z,42.97
2018-03-06T01:56:52.943Z,41.70
2018-03-06T01:59:20.544Z,41.80
2018-03-06T02:01:48.111Z,41.17
2018-03-06T02:04:15.672Z,41.17
2018-03-06T02:06:43.259Z,42.17
2018-03-06T02:09:10.826Z,41.93
2018-03-06T02:11:39.163Z,41.00
2018-03-06T02:14:06.760Z,40.03
2018-03-06T02:16:35.105Z,41.97
2018-03-06T02:19:02.669Z,41.80
2018-03-06T02:21:30.309Z,41.10
2018-03-06T02:23:58.614Z,42.20
2018-03-06T02:26:26.182Z,39.73
2018-03-06T02:28:56.247Z,39.43
2018-03-06T02:31:23.813Z,38.70
2018-03-06T02:33:51.407Z,37.77
2018-03-06T02:36:18.977Z,39.97
2018-03-06T02:38:46.552Z,39.33
2018-03-06T02:41:14.906Z,39.78
2018-03-06T02:43:42.459Z,39.07
2018-03-06T02:46:10.049Z,39.83
2018-03-06T02:48:37.614Z,38.63
2018-03-06T02:51:05.214Z,40.00
2018-03-06T02:53:32.774Z,40.27
2018-03-06T02:56:00.355Z,40.73
2018-03-06T02:58:27.961Z,40.10
2018-03-06T03:00:56.298Z,39.97
2018-03-06T03:03:23.872Z,38.80
2018-03-06T03:05:51.487Z,39.53
2018-03-06T03:08:19.046Z,39.93
2018-03-06T03:10:46.628Z,38.73
2018-03-06T03:13:14.226Z,43.20
2018-03-06T03:15:41.799Z,42.23
2018-03-06T03:18:09.376Z,39.60
2018-03-06T03:20:36.963Z,39.50
2018-03-06T03:23:04.549Z,43.20
2018-03-06T03:25:32.119Z,39.17
2018-03-06T03:27:59.726Z,38.67
2018-03-06T03:30:28.270Z,35.53
2018-03-06T03:32:55.846Z,36.00
2018-03-06T03:35:23.446Z,35.57
2018-03-06T03:37:51.029Z,38.17
2018-03-06T03:40:18.609Z,37.70
2018-03-06T03:42:46.207Z,35.87
2018-03-06T03:45:14.563Z,36.40
2018-03-06T03:47:42.143Z,35.67
2018-03-06T03:50:10.504Z,34.90
2018-03-06T03:52:38.083Z,35.63
2018-03-06T03:55:06.431Z,33.77
2018-03-06T03:57:34.045Z,34.70
2018-03-06T04:00:01.612Z,33.70
2018-03-06T04:02:29.187Z,31.90
2018-03-06T04:04:56.786Z,33.00
2018-03-06T04:07:24.370Z,32.27
2018-03-06T04:09:52.705Z,34.57
2018-03-06T04:12:20.318Z,35.70
2018-03-06T04:14:48.644Z,33.10
2018-03-06T04:17:16.245Z,32.47
2018-03-06T04:19:44.590Z,31.70
2018-03-06T04:22:12.162Z,32.40
2018-03-06T04:24:39.754Z,31.80
2018-03-06T04:27:07.329Z,33.20
2018-03-06T04:29:34.914Z,31.52
2018-03-06T04:32:02.508Z,30.50
2018-03-06T04:34:30.088Z,30.20
2018-03-06T04:36:58.448Z,33.17
2018-03-06T04:39:26.021Z,31.90
2018-03-06T04:41:53.585Z,31.10
2018-03-06T04:44:21.180Z,33.10
2018-03-06T04:46:48.760Z,30.92
2018-03-06T04:49:16.363Z,32.17
2018-03-06T04:51:44.736Z,32.35
2018-03-06T04:54:12.302Z,33.43
2018-03-06T04:56:39.890Z,32.87
2018-03-06T04:59:07.471Z,34.10
2018-03-06T05:01:35.078Z,34.55
2018-03-06T05:04:02.687Z,33.63
2018-03-06T05:06:30.258Z,36.30
2018-03-06T05:08:57.869Z,36.30
2018-03-06T05:11:26.212Z,38.60
2018-03-06T05:13:53.814Z,38.85
2018-03-06T05:16:22.164Z,36.00
2018-03-06T05:18:49.952Z,39.50
2018-03-06T05:21:18.266Z,44.80
2018-03-06T05:23:45.844Z,50.03
2018-03-06T05:26:13.459Z,49.25
2018-03-06T05:28:41.804Z,49.70
2018-03-06T05:31:09.369Z,47.23
2018-03-06T05:33:36.984Z,48.75
2018-03-06T05:36:04.577Z,47.63
2018-03-06T05:38:32.165Z,47.27
2018-03-06T05:40:59.791Z,44.50
2018-03-06T05:43:27.361Z,45.40
2018-03-06T05:45:54.947Z,43.53
2018-03-06T05:48:22.590Z,43.00
2018-03-06T05:50:50.188Z,40.77
2018-03-06T05:53:18.573Z,44.40
2018-03-06T05:55:46.922Z,41.67
2018-03-06T05:58:14.526Z,41.17
2018-03-06T06:00:42.147Z,45.17
2018-03-06T06:03:09.739Z,43.67
2018-03-06T06:05:38.107Z,42.67
2018-03-06T06:08:06.447Z,41.63
2018-03-06T06:10:34.010Z,41.80
2018-03-06T06:13:01.618Z,42.80
2018-03-06T06:15:29.201Z,40.67
2018-03-06T06:17:56.796Z,44.40
2018-03-06T06:20:24.474Z,44.33
2018-03-06T06:22:52.962Z,44.90
2018-03-06T06:25:20.520Z,46.43
2018-03-06T06:27:48.095Z,46.77
2018-03-06T06:30:15.714Z,47.93
2018-03-06T06:32:43.279Z,48.77
2018-03-06T06:35:10.864Z,47.40
2018-03-06T06:37:38.419Z,46.77
2018-03-06T06:40:06.009Z,45.63
2018-03-06T06:42:33.632Z,47.67
2018-03-06T06:45:01.197Z,49.17
2018-03-06T06:47:28.779Z,48.87
2018-03-06T06:49:56.354Z,50.13
2018-03-06T06:52:23.959Z,50.43
2018-03-06T06:54:51.535Z,52.43
2018-03-06T06:57:19.887Z,52.30
2018-03-06T06:59:47.524Z,52.63
2018-03-06T07:02:15.852Z,49.10
2018-03-06T07:04:43.411Z,50.87
2018-03-06T07:07:10.982Z,50.63
2018-03-06T07:09:38.547Z,49.80
2018-03-06T07:12:06.545Z,51.17
2018-03-06T07:14:34.875Z,54.90
2018-03-06T07:17:02.513Z,53.23
2018-03-06T07:19:30.084Z,51.07
2018-03-06T07:21:58.743Z,50.37
2018-03-06T07:24:27.085Z,53.13
2018-03-06T07:26:54.637Z,51.10
2018-03-06T07:29:22.190Z,51.80
2018-03-06T07:31:49.769Z,50.60
2018-03-06T07:34:17.332Z,52.43
2018-03-06T07:36:44.928Z,54.40
2018-03-06T07:39:12.498Z,54.83
2018-03-06T07:41:40.043Z,56.27
2018-03-06T07:44:07.621Z,55.63
2018-03-06T07:46:35.169Z,57.43
2018-03-06T07:49:03.510Z,55.97
2018-03-06T07:51:31.062Z,57.33
2018-03-06T07:53:58.626Z,58.67
2018-03-06T07:56:26.198Z,56.67
2018-03-06T07:58:53.754Z,56.17
2018-03-06T08:01:21.324Z,60.63
2018-03-06T08:03:48.903Z,61.03
2018-03-06T08:06:17.288Z,58.00
2018-03-06T08:08:45.627Z,57.87
2018-03-06T08:11:13.175Z,59.80
2018-03-06T08:13:40.743Z,61.53
2018-03-06T08:16:08.298Z,57.60
2018-03-06T08:18:35.856Z,55.93
2018-03-06T08:21:03.432Z,56.40
2018-03-06T08:23:30.990Z,57.10
2018-03-06T08:25:58.554Z,59.07
2018-03-06T08:28:26.107Z,57.87
2018-03-06T08:30:53.663Z,58.93
2018-03-06T08:33:21.230Z,58.47
2018-03-06T08:35:48.831Z,60.90
2018-03-06T08:38:17.188Z,60.00
2018-03-06T08:40:44.740Z,61.63
2018-03-06T08:43:12.296Z,58.83
2018-03-06T08:45:39.890Z,59.63
2018-03-06T08:48:08.248Z,57.70
2018-03-06T08:50:35.818Z,61.80
2018-03-06T08:53:04.131Z,60.40
2018-03-06T08:55:31.686Z,57.50
2018-03-06T08:57:59.259Z,57.60
2018-03-06T09:00:26.828Z,59.20
2018-03-06T09:02:54.402Z,56.60
2018-03-06T09:05:21.953Z,56.60
2018-03-06T09:07:49.511Z,60.00
2018-03-06T09:10:17.083Z,60.97
2018-03-06T09:12:44.638Z,58.30
2018-03-06T09:15:12.238Z,58.80
2018-03-06T09:17:39.800Z,62.70
2018-03-06T09:20:08.126Z,59.20
2018-03-06T09:22:35.694Z,59.40
2018-03-06T09:25:04.169Z,59.07
2018-03-06T09:27:31.751Z,61.50
2018-03-06T09:29:59.311Z,62.10
2018-03-06T09:32:27.647Z,59.30
2018-03-06T09:34:55.236Z,58.90
2018-03-06T09:37:22.789Z,59.90
2018-03-06T09:39:50.389Z,57.97
2018-03-06T09:42:17.965Z,57.00
2018-03-06T09:44:45.542Z,55.70
2018-03-06T09:47:13.876Z,58.63
2018-03-06T09:49:41.432Z,57.57
2018-03-06T09:52:08.998Z,55.20
2018-03-06T09:54:36.563Z,56.70
2018-03-06T09:57:04.117Z,55.10
2018-03-06T09:59:32.445Z,55.27
2018-03-06T10:01:59.994Z,56.50
2018-03-06T10:04:28.330Z,54.30
2018-03-06T10:06:55.882Z,55.80
2018-03-06T10:09:23.440Z,55.30
2018-03-06T10:11:51.003Z,56.37
2018-03-06T10:14:18.552Z,55.87
2018-03-06T10:16:46.125Z,56.07
2018-03-06T10:19:13.683Z,54.27
2018-03-06T10:21:41.223Z,55.63
2018-03-06T10:24:08.790Z,53.17
2018-03-06T10:26:36.335Z,52.40
2018-03-06T10:29:03.908Z,57.53
2018-03-06T10:31:31.458Z,54.73
2018-03-06T10:33:59.055Z,54.27
2018-03-06T10:36:26.639Z,54.10
2018-03-06T10:38:54.965Z,53.07
2018-03-06T10:41:22.530Z,55.30
2018-03-06T10:43:50.077Z,54.80
2018-03-06T10:46:17.636Z,52.70
2018-03-06T10:48:45.199Z,54.07
2018-03-06T10:51:12.743Z,56.00
2018-03-06T10:53:40.318Z,53.83
2018-03-06T10:56:07.885Z,59.20
2018-03-06T10:58:35.431Z,55.27
2018-03-06T11:01:02.992Z,57.03
2018-03-06T11:03:30.549Z,57.83
2018-03-06T11:05:58.134Z,55.67
2018-03-06T11:08:25.694Z,55.77
2018-03-06T11:10:53.232Z,53.87
2018-03-06T11:13:21.975Z,55.43
2018-03-06T11:15:49.519Z,53.37
2018-03-06T11:18:17.091Z,56.47
2018-03-06T11:20:44.636Z,51.57
2018-03-06T11:23:17.982Z,49.53
2018-03-06T11:25:46.292Z,51.10
2018-03-06T11:28:13.840Z,48.83
2018-03-06T11:30:41.402Z,51.30
2018-03-06T11:33:08.944Z,50.17
2018-03-06T11:35:36.519Z,50.77
2018-03-06T11:38:04.066Z,49.90
2018-03-06T11:40:31.610Z,46.53
2018-03-06T11:42:59.947Z,49.10
2018-03-06T11:45:27.498Z,49.50
2018-03-06T11:47:55.070Z,51.80
2018-03-06T11:50:22.623Z,49.77
2018-03-06T11:52:50.180Z,47.20
2018-03-06T11:55:17.735Z,49.20
2018-03-06T11:57:45.274Z,46.97
2018-03-06T12:00:12.855Z,46.47
2018-03-06T12:02:40.419Z,46.03
2018-03-06T12:05:07.986Z,46.57
2018-03-06T12:07:36.353Z,44.97
2018-03-06T12:10:07.343Z,46.00
2018-03-06T12:12:34.903Z,45.33
2018-03-06T12:15:05.397Z,45.73
2018-03-06T12:17:32.939Z,45.40
2018-03-06T12:20:00.612Z,47.80
2018-03-06T12:22:28.210Z,44.40
2018-03-06T12:24:56.566Z,48.43
2018-03-06T12:27:24.212Z,44.57
2018-03-06T12:29:51.758Z,41.47
2018-03-06T12:32:19.316Z,44.17
2018-03-06T12:34:46.866Z,44.53
2018-03-06T12:37:14.436Z,42.10
2018-03-06T12:39:41.974Z,43.10
2018-03-06T12:42:09.523Z,42.97
2018-03-06T12:44:37.952Z,42.73
2018-03-06T12:47:05.498Z,42.60
2018-03-06T12:49:41.398Z,41.43
2018-03-06T12:52:08.942Z,40.73
2018-03-06T12:54:36.498Z,40.40
2018-03-06T12:57:04.073Z,41.87
2018-03-06T12:59:31.612Z,43.40
2018-03-06T13:01:59.187Z,40.93
2018-03-06T13:04:26.739Z,41.50
2018-03-06T13:06:54.289Z,42.83
2018-03-06T13:09:21.852Z,40.80
2018-03-06T13:11:49.389Z,41.77
2018-03-06T13:14:16.956Z,39.80
2018-03-06T13:16:44.490Z,41.37
2018-03-06T13:19:12.793Z,39.40
2018-03-06T13:21:40.357Z,40.63
2018-03-06T13:24:07.906Z,40.10
2018-03-06T13:26:35.490Z,41.87
2018-03-06T13:29:03.037Z,40.87
2018-03-06T13:31:30.575Z,42.03
2018-03-06T13:33:58.936Z,41.30
2018-03-06T13:36:26.467Z,39.47
2018-03-06T13:38:54.048Z,38.10
2018-03-06T13:41:22.661Z,41.53
2018-03-06T13:43:50.452Z,38.20
2018-03-06T13:46:18.015Z,40.33
2018-03-06T13:48:45.572Z,41.47
2018-03-06T13:51:13.151Z,43.13
2018-03-06T13:53:40.706Z,41.03
2018-03-06T13:56:14.879Z,41.80
2018-03-06T13:58:50.372Z,40.27
2018-03-06T14:01:17.967Z,41.83
2018-03-06T14:03:45.508Z,43.40
2018-03-06T14:06:13.043Z,40.47
2018-03-06T14:08:40.620Z,45.80
2018-03-06T14:11:08.161Z,42.20
2018-03-06T14:13:35.708Z,41.80
2018-03-06T14:16:04.231Z,43.03
2018-03-06T14:18:31.780Z,41.57
2018-03-06T14:20:59.327Z,41.43
2018-03-06T14:23:26.928Z,42.93
2018-03-06T14:25:55.260Z,44.40
2018-03-06T14:28:22.823Z,42.70
2018-03-06T14:30:50.470Z,38.70
2018-03-06T14:33:18.011Z,40.87
2018-03-06T14:35:46.339Z,40.60
2018-03-06T14:38:13.904Z,41.70
2018-03-06T14:40:41.463Z,39.97
2018-03-06T14:43:09.047Z,39.20
2018-03-06T14:45:36.624Z,39.60
2018-03-06T14:48:04.930Z,42.87
2018-03-06T14:50:32.471Z,38.50
2018-03-06T14:53:00.795Z,37.77
2018-03-06T14:55:28.340Z,39.20
2018-03-06T14:57:55.920Z,36.37
2018-03-06T15:00:23.469Z,35.70
2018-03-06T15:02:51.015Z,34.90
2018-03-06T15:05:18.588Z,33.87
2018-03-06T15:07:46.470Z,33.27
2018-03-06T15:10:14.046Z,31.20
2018-03-06T15:12:41.588Z,31.87
2018-03-06T15:15:09.134Z,29.40
2018-03-06T15:17:36.694Z,28.77
2018-03-06T15:20:04.242Z,29.27
2018-03-06T15:22:31.814Z,27.97
2018-03-06T15:24:59.359Z,28.07
2018-03-06T15:27:26.903Z,28.40
2018-03-06T15:29:54.474Z,28.57
2018-03-06T15:32:22.053Z,27.40
2018-03-06T15:34:49.634Z,28.67
2018-03-06T15:37:17.178Z,29.40
2018-03-06T15:39:44.750Z,30.27
2018-03-06T15:42:12.340Z,29.93
2018-03-06T15:44:39.886Z,29.57
2018-03-06T15:47:07.457Z,30.70
2018-03-06T15:49:35.036Z,30.40
2018-03-06T15:52:03.350Z,30.23
2018-03-06T15:54:30.919Z,30.10
2018-03-06T15:56:58.477Z,30.20
2018-03-06T15:59:26.043Z,29.50
2018-03-06T16:01:53.583Z,32.07
2018-03-06T16:04:21.127Z,31.10
2018-03-06T16:06:49.463Z,29.07
2018-03-06T16:09:17.034Z,30.40
2018-03-06T16:11:44.594Z,30.50
2018-03-06T16:14:12.134Z,29.67
2018-03-06T16:16:43.431Z,27.60
2018-03-06T16:19:11.769Z,28.83
2018-03-06T16:21:39.321Z,31.07
2018-03-06T16:24:06.917Z,30.03
2018-03-06T16:26:35.260Z,30.13
2018-03-06T16:29:02.819Z,31.87
2018-03-06T16:31:30.408Z,31.00
2018-03-06T16:33:57.966Z,32.03
2018-03-06T16:36:25.534Z,31.60
2018-03-06T16:38:53.108Z,31.53
2018-03-06T16:41:20.683Z,31.43
2018-03-06T16:43:48.264Z,31.83
2018-03-06T16:46:17.760Z,33.60
2018-03-06T16:48:45.382Z,31.23
2018-03-06T16:51:12.923Z,31.60
2018-03-06T16:53:40.486Z,31.60
2018-03-06T16:56:08.055Z,31.00
2018-03-06T16:58:35.602Z,31.03
2018-03-06T17:01:06.205Z,31.07
2018-03-06T17:03:33.749Z,31.63
2018-03-06T17:06:01.293Z,31.60
2018-03-06T17:08:29.627Z,31.93
2018-03-06T17:10:58.014Z,32.10
2018-03-06T17:16:21.372Z,33.87
2018-03-06T17:18:48.959Z,31.83
2018-03-06T17:21:21.945Z,31.30
2018-03-06T17:23:50.324Z,31.53
2018-03-06T17:26:18.786Z,32.80
2018-03-06T17:28:46.350Z,34.37
2018-03-06T17:31:13.942Z,30.77
2018-03-06T17:33:41.484Z,33.63
2018-03-06T17:36:09.066Z,33.93
2018-03-06T17:38:36.641Z,34.23
2018-03-06T17:41:13.035Z,31.10
2018-03-06T17:43:40.611Z,33.33
2018-03-06T17:46:08.156Z,31.30
2018-03-06T17:48:35.727Z,33.73
2018-03-06T17:51:03.275Z,32.30
2018-03-06T17:53:30.846Z,34.53
2018-03-06T17:55:58.403Z,32.27
2018-03-06T17:58:25.946Z,34.17
2018-03-06T18:01:01.313Z,34.03
2018-03-06T18:03:28.869Z,33.13
2018-03-06T18:05:56.459Z,35.00
2018-03-06T18:08:24.020Z,34.97
2018-03-06T18:10:51.592Z,35.40
2018-03-06T18:13:19.196Z,33.50
2018-03-06T18:15:46.762Z,35.47
2018-03-06T18:18:15.277Z,32.70
2018-03-06T18:20:42.833Z,34.80
2018-03-06T18:23:10.445Z,32.60
2018-03-06T18:25:38.783Z,34.70
2018-03-06T18:28:06.398Z,32.57
2018-03-06T18:30:33.978Z,34.00
2018-03-06T18:33:03.508Z,34.70
2018-03-06T18:35:31.095Z,33.83
2018-03-06T18:37:58.674Z,33.67
2018-03-06T18:40:26.248Z,33.77
2018-03-06T18:42:54.777Z,32.47
2018-03-06T18:45:22.352Z,36.97
2018-03-06T18:47:49.951Z,37.10
2018-03-06T18:53:17.078Z,33.83
2018-03-06T18:55:44.654Z,40.40
2018-03-06T18:58:12.202Z,40.90
2018-03-06T19:01:02.445Z,41.83
2018-03-06T19:03:41.832Z,36.50
2018-03-06T19:06:21.395Z,34.57
2018-03-06T19:08:49.730Z,34.13
2018-03-06T19:11:17.324Z,36.00
2018-03-06T19:13:44.901Z,36.67
2018-03-06T19:16:13.253Z,33.90
2018-03-06T19:18:40.914Z,33.30
2018-03-06T19:21:08.475Z,34.80
2018-03-06T19:23:36.017Z,34.97
2018-03-06T19:26:05.737Z,34.63
2018-03-06T19:28:33.676Z,32.23
2018-03-06T19:31:01.332Z,31.33
2018-03-06T19:33:28.929Z,30.93
2018-03-06T19:35:57.193Z,31.90
2018-03-06T19:38:24.763Z,29.37
2018-03-06T19:40:52.343Z,31.73
2018-03-06T19:43:20.711Z,29.57
2018-03-06T19:45:48.267Z,29.10
2018-03-06T19:48:15.859Z,30.57
2018-03-06T19:50:43.435Z,29.80
2018-03-06T19:53:11.043Z,28.50
2018-03-06T19:55:56.367Z,27.50
2018-03-06T19:58:27.281Z,26.47
2018-03-06T20:00:54.851Z,27.30
2018-03-06T20:03:24.223Z,26.03
2018-03-06T20:05:51.782Z,25.13
2018-03-06T20:08:19.407Z,24.83
2018-03-06T20:10:47.008Z,24.83
2018-03-06T20:13:14.563Z,25.10
2018-03-06T20:15:42.161Z,27.00
2018-03-06T20:18:11.500Z,25.83
2018-03-06T20:20:39.086Z,24.47
2018-03-06T20:23:07.410Z,24.47
2018-03-06T20:25:41.471Z,24.67
2018-03-06T20:28:09.012Z,25.23
2018-03-06T20:30:57.406Z,28.20
2018-03-06T20:33:24.958Z,27.30
2018-03-06T20:35:52.527Z,28.60
2018-03-06T20:38:25.759Z,28.03
2018-03-06T20:40:53.390Z,28.00
2018-03-06T20:43:20.979Z,28.50
2018-03-06T20:45:54.223Z,29.00
2018-03-06T20:48:29.730Z,27.23
2018-03-06T20:50:57.275Z,26.90
2018-03-06T20:53:31.333Z,26.63
2018-03-06T20:55:58.876Z,26.73
2018-03-06T20:58:26.448Z,27.80
2018-03-06T21:00:54.048Z,28.47
2018-03-06T21:03:21.582Z,29.50
2018-03-06T21:05:49.173Z,29.47
2018-03-06T21:08:16.706Z,30.30
2018-03-06T21:10:44.250Z,31.60
2018-03-06T21:13:11.858Z,33.30
2018-03-06T21:15:39.414Z,31.33
2018-03-06T21:18:07.011Z,31.80
2018-03-06T21:20:34.564Z,31.07
2018-03-06T21:23:02.106Z,31.83
2018-03-06T21:25:30.836Z,32.10
2018-03-06T21:27:58.382Z,30.73
2018-03-06T21:30:26.899Z,32.20
2018-03-06T21:32:54.459Z,30.97
2018-03-06T21:35:21.998Z,31.37
2018-03-06T21:37:49.578Z,31.33
2018-03-06T21:40:17.173Z,33.00
2018-03-06T21:42:45.528Z,33.30
2018-03-06T21:45:13.536Z,34.20
2018-03-06T21:47:41.251Z,32.40
2018-03-06T21:50:12.405Z,35.63
2018-03-06T21:52:39.962Z,34.40
2018-03-06T21:55:07.532Z,31.90
2018-03-06T21:57:35.065Z,34.70
2018-03-06T22:00:03.651Z,31.87
2018-03-06T22:02:31.207Z,34.10
2018-03-06T22:04:58.765Z,31.83
2018-03-06T22:07:27.058Z,32.87
2018-03-06T22:09:54.587Z,31.90
2018-03-06T22:12:22.135Z,33.10
2018-03-06T22:14:49.707Z,32.20
2018-03-06T22:17:17.246Z,31.23
2018-03-06T22:19:45.588Z,32.50
2018-03-06T22:22:13.151Z,30.97
2018-03-06T22:24:40.703Z,32.10
2018-03-06T22:27:08.271Z,31.77
2018-03-06T22:29:43.649Z,31.33
2018-03-06T22:32:11.991Z,30.50
2018-03-06T22:34:39.562Z,29.80
2018-03-06T22:37:07.126Z,31.20
2018-03-06T22:39:34.708Z,30.87
2018-03-06T22:42:02.268Z,31.70
2018-03-06T22:44:30.615Z,32.50
2018-03-06T22:46:58.170Z,31.17
2018-03-06T22:49:25.722Z,28.00
2018-03-06T22:51:53.292Z,27.90
2018-03-06T22:54:20.866Z,28.90
2018-03-06T22:56:48.442Z,29.47
2018-03-06T22:59:16.018Z,29.60
2018-03-06T23:01:44.355Z,26.50
2018-03-06T23:04:11.924Z,26.37
2018-03-06T23:06:39.464Z,26.20
2018-03-06T23:09:07.050Z,25.17
2018-03-06T23:11:34.604Z,27.93
2018-03-06T23:14:02.143Z,26.97
2018-03-06T23:16:29.732Z,26.37
2018-03-06T23:18:57.271Z,25.00
2018-03-06T23:21:24.842Z,25.43
2018-03-06T23:23:52.401Z,25.03
2018-03-06T23:26:19.950Z,26.53
2018-03-06T23:28:47.523Z,26.60
2018-03-06T23:31:15.076Z,27.10
2018-03-06T23:33:51.111Z,26.47
2018-03-06T23:36:18.668Z,26.80
2018-03-06T23:38:46.228Z,27.30
2018-03-06T23:41:13.851Z,28.63
2018-03-06T23:43:41.424Z,26.90
2018-03-06T23:46:09.037Z,29.60
2018-03-06T23:48:36.654Z,28.03
2018-03-06T23:51:04.239Z,29.53
2018-03-06T23:53:31.822Z,28.93
2018-03-06T23:55:59.375Z,30.80
2018-03-06T23:58:26.953Z,30.10
